Airport View

Enter AWOS ICAO identifier for current METAR.

ex. KFNL

KHSA 120150Z 05006KT 7SM CLR 08/01 A3042

12 Dec 2019 06:09

Frequency: 118.375

Phone: 228-466-9320

Other Area AWOS: KASD - KGPT - KBIX - KBXA

TAF KASD 120533Z 1206/1306 02006KT P6SM SKC FM121200 05007KT P6SM SCT140 FM121400 06006KT P6SM BKN080 FM121700 08006KT P6SM OVC030 FM122000 07006KT P6SM OVC015 FM130400 05006KT P6SM OVC007